Time;durP1;ratioP1;P1;durP2;ratioP2;P2;SDS_P1;SDS_P2;PMS_P1;PMS_P2;Temp;Humidity;BMP_temperature;BMP_pressure;BME280_temperature;BME280_humidity;BME280_pressure;Samples;Min_cycle;Max_cycle;Signal;HPM_P1;HPM_P2
2022/10/19 00:01:46;;;;;;;8.88;5.30;;;21.90;78.60;;;;;;5109263;27;20045;-69
2022/10/19 02:21:22;;;;;;;8.25;4.85;;;20.70;78.50;;;;;;5102165;27;20462;-75
2022/10/19 02:23:49;;;;;;;6.90;3.60;;;20.70;77.70;;;;;;5077274;28;20031;-74
2022/10/19 02:26:15;;;;;;;14.10;6.15;;;20.70;77.40;;;;;;5082831;28;20119;-71
2022/10/19 02:28:42;;;;;;;6.72;4.38;;;20.70;76.90;;;;;;5075806;28;20052;-71
2022/10/19 02:31:09;;;;;;;14.02;4.60;;;20.80;76.40;;;;;;5077721;28;20060;-74
2022/10/19 02:33:36;;;;;;;16.77;4.03;;;20.70;76.00;;;;;;5083090;28;20096;-74
2022/10/19 02:36:03;;;;;;;6.95;3.85;;;20.80;76.00;;;;;;5083183;28;20036;-75
2022/10/19 02:38:30;;;;;;;14.68;5.28;;;20.80;75.90;;;;;;5081286;28;20107;-75
2022/10/19 02:40:56;;;;;;;7.35;4.22;;;20.80;75.80;;;;;;5078573;28;20450;-72
2022/10/19 02:43:25;;;;;;;8.23;4.13;;;20.80;75.70;;;;;;5075480;28;20031;-74
2022/10/19 02:46:05;;;;;;;11.30;5.00;;;20.70;75.60;;;;;;5081921;28;20013;-76
2022/10/19 02:48:34;;;;;;;10.05;4.60;;;20.70;75.50;;;;;;5073760;28;20339;-75
2022/10/19 02:51:00;;;;;;;9.13;4.82;;;20.70;75.40;;;;;;5083846;28;20293;-74
2022/10/19 02:53:28;;;;;;;8.32;4.65;;;20.70;75.20;;;;;;5080824;28;20016;-75
2022/10/19 02:55:54;;;;;;;8.52;5.25;;;20.70;75.20;;;;;;5078557;27;20060;-74
2022/10/19 02:58:21;;;;;;;8.32;5.38;;;20.70;75.10;;;;;;5080287;28;20374;-76
2022/10/19 03:00:47;;;;;;;8.52;4.93;;;20.70;74.90;;;;;;5074525;28;20453;-74
2022/10/19 03:03:14;;;;;;;10.80;5.22;;;20.60;74.80;;;;;;5082901;28;20013;-76
2022/10/19 03:05:40;;;;;;;12.00;5.25;;;20.60;74.70;;;;;;5081156;28;20024;-76
2022/10/19 03:08:06;;;;;;;11.38;5.40;;;20.60;74.70;;;;;;5083214;28;20020;-73
2022/10/19 03:10:33;;;;;;;11.18;6.05;;;20.60;74.80;;;;;;5079888;28;20031;-74
2022/10/19 03:12:59;;;;;;;12.85;5.88;;;20.60;74.80;;;;;;5079351;28;20480;-75
2022/10/19 03:15:28;;;;;;;16.02;5.68;;;20.60;74.60;;;;;;5080117;28;20044;-75
2022/10/19 03:17:55;;;;;;;12.95;5.75;;;20.50;74.50;;;;;;5080576;28;20020;-75
2022/10/19 03:20:22;;;;;;;12.00;5.60;;;20.50;74.40;;;;;;5076267;28;20043;-72
2022/10/19 03:22:49;;;;;;;11.68;6.18;;;20.50;74.20;;;;;;5066176;28;20029;-74
2022/10/19 03:25:15;;;;;;;10.45;5.57;;;20.50;74.10;;;;;;5066736;28;20024;-75
2022/10/19 03:27:42;;;;;;;13.48;5.30;;;20.50;73.90;;;;;;5067000;28;20524;-75
2022/10/19 03:30:08;;;;;;;9.38;4.80;;;20.50;73.90;;;;;;5067232;28;20037;-73
2022/10/19 03:32:35;;;;;;;9.65;5.38;;;20.40;73.90;;;;;;5064276;28;20033;-74
2022/10/19 03:35:01;;;;;;;13.25;6.00;;;20.40;73.80;;;;;;5066239;28;20447;-75
2022/10/19 03:37:28;;;;;;;9.73;5.47;;;20.40;73.70;;;;;;5062585;28;20494;-74
2022/10/19 03:39:54;;;;;;;10.13;5.65;;;20.40;73.60;;;;;;5065012;28;20021;-74
2022/10/19 03:42:20;;;;;;;7.78;5.15;;;20.40;73.60;;;;;;5066226;28;20075;-74
2022/10/19 03:44:47;;;;;;;10.30;5.18;;;20.30;73.50;;;;;;5065853;28;20085;-75
2022/10/19 03:47:13;;;;;;;8.57;4.10;;;20.30;73.50;;;;;;5065000;28;20518;-73
2022/10/19 03:49:42;;;;;;;18.65;6.20;;;20.30;73.40;;;;;;5066351;28;20498;-71
2022/10/19 03:52:09;;;;;;;9.80;4.63;;;20.30;73.40;;;;;;5062230;28;20063;-72
2022/10/19 03:54:36;;;;;;;9.48;4.60;;;20.30;73.30;;;;;;5063844;28;20021;-74
2022/10/19 03:57:02;;;;;;;15.52;5.63;;;20.30;73.20;;;;;;5064618;28;20041;-79
2022/10/19 03:59:34;;;;;;;7.15;5.28;;;20.20;73.10;;;;;;5061431;28;20024;-77
2022/10/19 04:02:02;;;;;;;6.65;4.43;;;20.20;73.10;;;;;;5059900;28;20025;-74
2022/10/19 04:04:28;;;;;;;12.05;6.07;;;20.20;73.10;;;;;;5067064;28;20071;-75
2022/10/19 04:06:55;;;;;;;11.27;6.20;;;20.20;73.30;;;;;;5060813;28;20017;-77
2022/10/19 04:09:22;;;;;;;9.90;5.13;;;20.10;74.00;;;;;;5058657;28;20454;-79
2022/10/19 04:11:49;;;;;;;13.80;5.22;;;20.10;74.00;;;;;;5062094;28;20021;-75
2022/10/19 04:14:18;;;;;;;14.90;5.60;;;20.20;73.80;;;;;;5065459;28;20017;-77
2022/10/19 04:16:44;;;;;;;7.57;4.70;;;20.10;73.50;;;;;;5068014;28;20023;-73
2022/10/19 04:19:15;;;;;;;9.88;6.00;;;20.10;73.30;;;;;;5061056;28;20024;-72
2022/10/19 04:21:43;;;;;;;13.68;10.15;;;20.10;73.40;;;;;;5065991;28;20033;-70
2022/10/19 04:24:18;;;;;;;16.75;10.63;;;20.10;73.50;;;;;;5061794;28;20043;-70
2022/10/19 04:26:45;;;;;;;;;;;20.10;73.50;;;;;;5067485;28;20442;-76
2022/10/19 04:29:13;;;;;;;9.80;6.28;;;20.10;73.40;;;;;;5067554;28;19920;-69
2022/10/19 04:31:39;;;;;;;12.63;6.78;;;20.10;73.40;;;;;;5064150;28;20024;-72
2022/10/19 04:34:07;;;;;;;11.40;6.13;;;20.10;73.30;;;;;;5067529;28;20028;-74
2022/10/19 04:36:35;;;;;;;15.48;6.20;;;20.10;73.30;;;;;;5064515;28;20032;-72
2022/10/19 04:39:01;;;;;;;17.13;8.13;;;20.10;73.40;;;;;;5066006;28;20027;-72
2022/10/19 04:41:28;;;;;;;14.95;8.52;;;20.00;73.40;;;;;;5060386;28;20032;-73
2022/10/19 04:43:57;;;;;;;12.00;7.60;;;20.10;73.70;;;;;;5064962;28;20028;-72
2022/10/19 04:46:24;;;;;;;7.00;5.50;;;20.00;73.80;;;;;;5064878;28;20028;-73
2022/10/19 04:48:51;;;;;;;8.57;5.85;;;20.00;73.90;;;;;;5064868;28;20036;-74
2022/10/19 04:51:19;;;;;;;9.05;5.40;;;20.00;74.10;;;;;;5059999;28;20017;-73
2022/10/19 04:53:45;;;;;;;6.95;5.57;;;20.00;74.20;;;;;;5062165;28;20019;-72
2022/10/19 04:56:18;;;;;;;14.48;5.90;;;20.00;74.40;;;;;;5064943;28;20024;-71
2022/10/19 04:58:44;;;;;;;6.35;5.32;;;20.00;74.60;;;;;;5066058;28;20405;-71
2022/10/19 05:01:17;;;;;;;7.95;4.53;;;20.10;75.00;;;;;;5059729;28;20021;-72
2022/10/19 05:03:44;;;;;;;6.55;3.92;;;20.00;75.10;;;;;;5063749;28;20103;-72
2022/10/19 05:06:12;;;;;;;12.25;5.25;;;20.00;75.40;;;;;;5063304;28;20071;-72
2022/10/19 05:08:39;;;;;;;7.80;4.47;;;20.00;75.70;;;;;;5066719;28;20024;-72
2022/10/19 05:11:15;;;;;;;8.43;5.65;;;20.10;76.00;;;;;;5065870;28;20104;-71
2022/10/19 05:13:42;;;;;;;11.25;5.28;;;20.00;76.30;;;;;;5066313;28;20115;-72
2022/10/19 05:16:12;;;;;;;11.18;6.72;;;20.00;76.70;;;;;;5065712;28;20029;-71
2022/10/19 05:18:39;;;;;;;23.02;5.57;;;20.10;77.10;;;;;;5061978;28;20078;-73
2022/10/19 05:21:13;;;;;;;13.32;6.57;;;20.10;77.80;;;;;;5063398;28;20048;-72
2022/10/19 05:23:41;;;;;;;13.63;8.30;;;20.10;78.70;;;;;;5062753;28;20025;-72
2022/10/19 05:26:11;;;;;;;10.20;6.03;;;20.10;79.60;;;;;;5065446;28;20021;-70
2022/10/19 05:28:38;;;;;;;15.38;6.50;;;20.10;80.10;;;;;;5061921;28;20028;-72
2022/10/19 05:31:09;;;;;;;10.43;6.93;;;20.20;80.50;;;;;;5067029;28;20060;-72
2022/10/19 05:33:36;;;;;;;9.40;6.05;;;20.20;80.80;;;;;;5066241;28;20017;-72
2022/10/19 05:36:33;;;;;;;10.70;7.82;;;20.20;80.90;;;;;;5065458;28;20051;-73
2022/10/19 05:39:11;;;;;;;11.05;6.68;;;20.20;81.30;;;;;;5061473;28;20932;-70
2022/10/19 05:41:37;;;;;;;14.95;6.15;;;20.30;81.60;;;;;;5063737;28;20031;-72
2022/10/19 05:44:04;;;;;;;10.93;5.22;;;20.30;81.80;;;;;;5066465;28;20104;-70
2022/10/19 05:46:32;;;;;;;6.57;4.10;;;20.30;82.10;;;;;;5064397;28;20021;-73
2022/10/19 05:48:59;;;;;;;12.80;6.15;;;20.30;82.40;;;;;;5070056;28;20364;-72
2022/10/19 05:51:27;;;;;;;10.00;4.80;;;20.40;82.80;;;;;;5064534;28;20027;-72
2022/10/19 05:53:54;;;;;;;12.27;4.72;;;20.40;82.90;;;;;;5060250;28;20029;-71
2022/10/19 05:56:23;;;;;;;14.73;6.25;;;20.40;83.20;;;;;;5065826;28;20028;-72
2022/10/19 05:58:50;;;;;;;9.52;5.18;;;20.40;83.40;;;;;;5063813;28;20093;-71
2022/10/19 06:01:18;;;;;;;11.45;4.95;;;20.50;83.40;;;;;;5066681;28;20515;-71
2022/10/19 06:03:46;;;;;;;9.40;5.53;;;20.50;83.30;;;;;;5052963;28;20025;-71
2022/10/19 06:06:13;;;;;;;9.02;5.45;;;20.50;83.30;;;;;;5065728;28;20013;-71
2022/10/19 06:08:40;;;;;;;11.88;5.55;;;20.60;83.30;;;;;;5062869;28;20127;-73
2022/10/19 06:11:22;;;;;;;10.25;5.10;;;20.60;83.20;;;;;;5063503;28;20009;-72
2022/10/19 06:13:52;;;;;;;11.45;5.13;;;20.60;83.20;;;;;;5079380;28;20056;-71
2022/10/19 06:16:20;;;;;;;13.05;6.57;;;20.60;83.20;;;;;;5066631;28;20035;-72
2022/10/19 06:18:46;;;;;;;14.02;4.93;;;20.70;83.20;;;;;;5061560;28;20517;-71
2022/10/19 06:21:18;;;;;;;9.98;5.38;;;20.70;83.80;;;;;;5063486;28;20051;-71
2022/10/19 06:23:49;;;;;;;11.02;5.30;;;20.70;83.20;;;;;;5060444;28;20107;-71
2022/10/19 06:26:15;;;;;;;13.88;5.28;;;20.80;83.20;;;;;;5065948;28;20013;-71
2022/10/19 06:28:42;;;;;;;18.08;5.72;;;20.80;83.20;;;;;;5080024;28;20060;-72
2022/10/19 06:31:11;;;;;;;13.75;5.18;;;20.90;83.30;;;;;;5063927;28;20028;-71
2022/10/19 06:33:39;;;;;;;9.70;5.30;;;20.90;83.20;;;;;;5064742;28;20024;-72
2022/10/19 06:36:08;;;;;;;13.75;5.95;;;20.90;83.20;;;;;;5060142;28;20029;-72
2022/10/19 06:38:35;;;;;;;9.48;5.10;;;21.00;83.10;;;;;;5059526;28;20024;-71
2022/10/19 06:41:01;;;;;;;20.23;8.55;;;21.00;83.00;;;;;;5065130;28;20032;-71
2022/10/19 06:43:28;;;;;;;19.98;7.35;;;21.00;83.20;;;;;;5063791;28;20352;-72
2022/10/19 06:45:55;;;;;;;13.15;7.28;;;21.10;83.80;;;;;;5059393;28;20103;-71
2022/10/19 06:48:21;;;;;;;25.88;10.13;;;21.10;84.00;;;;;;5061941;28;20461;-72
2022/10/19 06:51:02;;;;;;;19.85;8.05;;;21.20;84.20;;;;;;5062148;28;20016;-72
2022/10/19 06:53:30;;;;;;;15.32;8.18;;;21.30;84.20;;;;;;5063223;28;20078;-72
2022/10/19 06:56:01;;;;;;;16.20;7.95;;;21.30;84.10;;;;;;5059870;28;20095;-72
2022/10/19 06:58:29;;;;;;;18.98;8.90;;;21.30;84.00;;;;;;5068766;28;20029;-71
2022/10/19 07:01:00;;;;;;;17.55;8.10;;;21.40;84.00;;;;;;5068659;28;20021;-71
2022/10/19 07:03:28;;;;;;;26.55;10.48;;;21.40;83.80;;;;;;5061740;28;20783;-72
2022/10/19 07:06:04;;;;;;;20.40;8.80;;;21.40;83.60;;;;;;5068950;28;20020;-72
2022/10/19 07:08:32;;;;;;;28.80;9.80;;;21.50;83.60;;;;;;5063000;28;20029;-72
2022/10/19 07:11:01;;;;;;;17.25;9.43;;;21.50;83.40;;;;;;5077727;28;20032;-72
2022/10/19 07:13:29;;;;;;;16.90;9.82;;;21.60;83.30;;;;;;5066138;28;20029;-72
2022/10/19 07:16:02;;;;;;;15.98;9.18;;;21.60;83.10;;;;;;5070036;28;20023;-72
2022/10/19 07:18:28;;;;;;;17.15;7.55;;;21.70;82.90;;;;;;5067986;28;20115;-72
2022/10/19 07:21:00;;;;;;;17.52;8.25;;;21.70;82.70;;;;;;5064283;28;20094;-72
2022/10/19 07:23:28;;;;;;;12.07;7.05;;;21.70;82.40;;;;;;5066465;28;20111;-72
2022/10/19 07:26:00;;;;;;;16.88;8.27;;;21.80;82.30;;;;;;5062884;28;20096;-73
2022/10/19 07:28:29;;;;;;;18.17;7.57;;;21.90;82.30;;;;;;5064790;28;20475;-72
2022/10/19 07:30:55;;;;;;;18.50;6.40;;;21.90;82.10;;;;;;5062265;28;20032;-72
2022/10/19 07:33:22;;;;;;;16.58;6.85;;;22.00;81.90;;;;;;5066363;28;20032;-72
2022/10/19 07:35:49;;;;;;;10.50;6.15;;;22.00;81.70;;;;;;5064881;28;20095;-72
2022/10/19 07:38:15;;;;;;;17.67;6.95;;;22.10;81.60;;;;;;5065872;28;20028;-72
2022/10/19 07:40:42;;;;;;;15.02;7.18;;;22.10;81.50;;;;;;5064802;28;20025;-72
2022/10/19 07:43:08;;;;;;;18.25;6.75;;;22.20;81.60;;;;;;5068515;28;20048;-72
2022/10/19 07:45:35;;;;;;;15.27;7.13;;;22.30;81.60;;;;;;5062586;28;20028;-72
2022/10/19 07:48:01;;;;;;;13.77;7.05;;;22.40;81.50;;;;;;5067789;28;20501;-72
2022/10/19 07:50:27;;;;;;;12.68;6.93;;;22.40;81.20;;;;;;5065533;28;20051;-72
2022/10/19 07:52:54;;;;;;;19.55;7.68;;;22.40;81.00;;;;;;5084906;28;20020;-72
2022/10/19 07:55:21;;;;;;;32.40;8.15;;;22.50;80.90;;;;;;5063101;28;20029;-72
2022/10/19 07:57:48;;;;;;;17.55;7.82;;;22.50;80.70;;;;;;5066142;28;20092;-72
2022/10/19 08:00:16;;;;;;;14.07;7.15;;;22.60;80.60;;;;;;5066580;28;20021;-72
2022/10/19 08:02:43;;;;;;;12.10;6.10;;;22.60;80.40;;;;;;5067030;28;20027;-72
2022/10/19 08:05:10;;;;;;;18.40;7.72;;;22.70;80.30;;;;;;5064606;28;20029;-72
2022/10/19 08:07:36;;;;;;;12.52;6.60;;;22.80;80.00;;;;;;5064654;28;20021;-72
2022/10/19 08:10:04;;;;;;;11.82;6.40;;;22.80;79.90;;;;;;5066108;28;20028;-73
2022/10/19 08:12:31;;;;;;;14.23;5.95;;;22.90;80.00;;;;;;5062802;28;20053;-73
2022/10/19 08:14:57;;;;;;;16.92;6.70;;;22.90;80.00;;;;;;5066681;28;20812;-73
2022/10/19 08:17:24;;;;;;;12.00;5.53;;;23.00;80.00;;;;;;5068647;28;20029;-73
2022/10/19 08:19:50;;;;;;;11.73;6.75;;;23.00;79.60;;;;;;5065080;28;20039;-75
2022/10/19 08:22:16;;;;;;;12.25;6.45;;;23.10;79.40;;;;;;5066251;28;20064;-72
2022/10/19 08:24:43;;;;;;;13.52;7.32;;;23.10;79.00;;;;;;5067120;28;20025;-73
2022/10/19 08:27:09;;;;;;;8.70;5.00;;;23.10;78.70;;;;;;5063544;28;20024;-72
2022/10/19 08:29:36;;;;;;;14.32;6.85;;;23.20;78.20;;;;;;5066825;28;20032;-73
2022/10/19 08:32:02;;;;;;;13.65;5.97;;;23.10;77.90;;;;;;5067955;28;20355;-72
2022/10/19 08:34:29;;;;;;;9.43;4.85;;;23.20;77.70;;;;;;5070817;28;20032;-72
2022/10/19 08:36:55;;;;;;;11.48;6.82;;;23.20;77.40;;;;;;5065020;28;20039;-73
2022/10/19 08:39:22;;;;;;;14.40;4.70;;;23.30;77.00;;;;;;5068330;28;20410;-72
2022/10/19 08:42:00;;;;;;;19.08;6.95;;;23.40;76.90;;;;;;5067384;28;20425;-72
2022/10/19 08:45:05;;;;;;;9.73;4.50;;;23.40;76.90;;;;;;5057777;28;20575;-72
2022/10/19 08:47:53;;;;;;;8.73;4.95;;;23.50;76.80;;;;;;5063835;28;20063;-72
2022/10/19 08:50:26;;;;;;;8.82;4.10;;;23.50;76.60;;;;;;5070544;28;20040;-73
2022/10/19 08:53:03;;;;;;;8.07;5.18;;;23.60;76.50;;;;;;5067968;28;20028;-72
2022/10/19 08:55:54;;;;;;;11.93;5.00;;;23.60;76.50;;;;;;5069158;28;20386;-72
2022/10/19 08:58:36;;;;;;;10.48;5.30;;;23.60;76.50;;;;;;5065413;28;20127;-73
2022/10/19 09:01:47;;;;;;;8.52;5.32;;;23.60;76.40;;;;;;5069793;28;20029;-73
2022/10/19 09:04:40;;;;;;;11.75;4.55;;;23.70;76.70;;;;;;5063105;28;20372;-73
2022/10/19 09:07:15;;;;;;;10.63;6.20;;;23.70;76.50;;;;;;5067335;28;20112;-73
2022/10/19 09:09:47;;;;;;;12.32;5.50;;;23.70;76.50;;;;;;5065422;28;20386;-73
2022/10/19 09:12:18;;;;;;;14.15;5.90;;;23.70;76.30;;;;;;5068651;28;20032;-72
2022/10/19 09:14:58;;;;;;;10.05;4.07;;;23.70;76.00;;;;;;5066063;28;20013;-73
2022/10/19 09:17:25;;;;;;;9.93;4.28;;;23.80;76.00;;;;;;5062159;28;20028;-73
2022/10/19 09:19:52;;;;;;;12.00;4.32;;;23.80;75.90;;;;;;5071186;28;20047;-73
2022/10/19 09:22:18;;;;;;;14.07;7.75;;;23.80;75.60;;;;;;5065326;28;20035;-73
2022/10/19 09:25:11;;;;;;;11.07;4.40;;;23.80;75.30;;;;;;5069237;28;20016;-73
2022/10/19 09:27:39;;;;;;;12.00;3.70;;;23.80;75.20;;;;;;5065611;28;20028;-72
2022/10/19 09:30:16;;;;;;;20.63;6.00;;;23.80;75.10;;;;;;5067514;28;20097;-73
2022/10/19 09:32:42;;;;;;;6.97;3.30;;;23.80;74.70;;;;;;5064138;28;20009;-72
2022/10/19 09:35:31;;;;;;;6.55;2.60;;;23.80;74.50;;;;;;5066791;28;20395;-73
2022/10/19 09:37:58;;;;;;;6.03;3.88;;;23.90;74.50;;;;;;5067917;28;20032;-73
2022/10/19 09:40:28;;;;;;;6.38;2.85;;;23.90;74.30;;;;;;5063899;28;20100;-73
2022/10/19 09:43:01;;;;;;;5.30;2.33;;;23.90;73.80;;;;;;5066634;28;20062;-72
2022/10/19 09:45:52;;;;;;;6.07;2.75;;;23.90;73.40;;;;;;5065316;28;20401;-73
2022/10/19 09:48:40;;;;;;;7.35;2.40;;;23.90;72.60;;;;;;5066662;28;20030;-72
2022/10/19 09:51:14;;;;;;;9.50;4.50;;;23.90;72.20;;;;;;5068428;28;20012;-73
2022/10/19 09:53:50;;;;;;;10.95;2.63;;;23.90;72.00;;;;;;5063141;28;20440;-73
2022/10/19 09:56:20;;;;;;;4.43;2.33;;;24.00;71.80;;;;;;5068674;28;20042;-73
2022/10/19 09:58:57;;;;;;;4.68;2.30;;;24.00;71.70;;;;;;5065409;28;20078;-73
2022/10/19 10:01:36;;;;;;;3.45;2.47;;;24.00;71.50;;;;;;5068722;28;20482;-72
2022/10/19 10:04:16;;;;;;;4.68;2.65;;;24.00;71.40;;;;;;5064797;28;20516;-73
2022/10/19 10:06:45;;;;;;;5.00;2.10;;;24.00;71.50;;;;;;5060950;28;20024;-73
2022/10/19 10:09:27;;;;;;;2.58;2.15;;;24.00;71.40;;;;;;5064506;28;20068;-73
2022/10/19 10:11:58;;;;;;;5.00;2.95;;;24.00;71.20;;;;;;5062511;28;20086;-73
2022/10/19 10:14:34;;;;;;;5.45;2.42;;;24.10;71.10;;;;;;5072682;28;20133;-73
2022/10/19 10:17:17;;;;;;;3.72;2.92;;;24.10;71.00;;;;;;5065854;28;20111;-73
2022/10/19 10:19:57;;;;;;;2.83;2.63;;;24.10;70.80;;;;;;5063747;28;20515;-73
2022/10/19 10:22:35;;;;;;;5.70;2.67;;;24.10;70.60;;;;;;5068112;28;20103;-73
2022/10/19 10:25:17;;;;;;;7.55;3.42;;;24.10;70.60;;;;;;5065741;28;20108;-73
2022/10/19 10:28:02;;;;;;;6.75;3.00;;;24.20;70.50;;;;;;5068375;28;20383;-73
2022/10/19 10:30:34;;;;;;;2.55;2.25;;;24.20;70.30;;;;;;5063153;28;20037;-72
2022/10/19 10:33:01;;;;;;;2.72;1.90;;;24.20;70.10;;;;;;5070249;28;20072;-73
2022/10/19 10:35:34;;;;;;;3.63;2.40;;;24.20;69.80;;;;;;5067434;28;20028;-73
2022/10/19 10:38:07;;;;;;;3.28;2.80;;;24.20;69.70;;;;;;5070185;28;20032;-73
2022/10/19 10:40:35;;;;;;;5.50;2.92;;;24.20;69.70;;;;;;5069224;28;20074;-72
2022/10/19 10:43:08;;;;;;;3.97;2.33;;;24.30;69.60;;;;;;5065050;28;20032;-73
2022/10/19 10:45:42;;;;;;;3.65;2.50;;;24.30;69.50;;;;;;5074816;28;20030;-73
2022/10/19 10:48:14;;;;;;;2.63;1.95;;;24.40;69.50;;;;;;5070691;28;20028;-73
2022/10/19 10:50:41;;;;;;;5.35;2.83;;;24.40;69.40;;;;;;5065629;28;21055;-73
2022/10/19 10:53:38;;;;;;;3.90;2.42;;;24.40;69.50;;;;;;5071783;28;20035;-74
2022/10/19 10:56:21;;;;;;;2.65;2.33;;;24.50;69.60;;;;;;5073218;28;20027;-73
2022/10/19 10:59:20;;;;;;;3.05;2.78;;;24.50;69.60;;;;;;5068621;28;20471;-73
2022/10/19 11:02:03;;;;;;;3.28;2.65;;;24.60;69.70;;;;;;5064701;28;20412;-72
2022/10/19 11:04:35;;;;;;;2.25;2.05;;;24.60;69.70;;;;;;5063714;28;20048;-72
2022/10/19 11:07:15;;;;;;;2.92;2.25;;;24.70;69.70;;;;;;5063408;28;20029;-73
2022/10/19 11:10:01;;;;;;;4.50;2.40;;;24.70;69.70;;;;;;5081060;28;20036;-72
2022/10/19 11:13:15;;;;;;;3.28;2.58;;;24.70;69.70;;;;;;5069266;28;20040;-72
2022/10/19 11:15:53;;;;;;;4.10;2.92;;;24.80;69.70;;;;;;5065278;28;20039;-73
2022/10/19 11:18:36;;;;;;;4.20;2.80;;;24.90;69.60;;;;;;5069064;28;20158;-73
2022/10/19 11:21:50;;;;;;;3.38;2.90;;;24.90;69.60;;;;;;5071208;28;20047;-72
2022/10/19 11:24:34;;;;;;;5.70;3.17;;;24.90;69.50;;;;;;5059250;28;20043;-72
2022/10/19 11:27:52;;;;;;;3.40;3.10;;;24.90;69.20;;;;;;5059755;28;20017;-72
2022/10/19 11:30:21;;;;;;;3.83;2.75;;;24.90;69.10;;;;;;5063168;28;20048;-72
2022/10/19 11:33:18;;;;;;;6.78;3.22;;;24.90;68.90;;;;;;5070571;28;20130;-72
2022/10/19 11:35:53;;;;;;;4.13;3.33;;;24.90;68.80;;;;;;5065637;28;20031;-72
2022/10/19 11:38:51;;;;;;;5.18;2.95;;;24.90;68.70;;;;;;5070326;28;20032;-73
2022/10/19 11:41:38;;;;;;;6.65;3.92;;;24.90;68.70;;;;;;5032178;28;20028;-72
2022/10/19 11:44:23;;;;;;;8.60;3.92;;;25.00;68.70;;;;;;5071213;28;20103;-72
2022/10/19 11:47:04;;;;;;;5.93;4.18;;;25.00;68.50;;;;;;5067368;28;20021;-72
2022/10/19 11:49:54;;;;;;;5.15;4.65;;;25.00;68.40;;;;;;5067976;28;20032;-72
2022/10/19 11:52:32;;;;;;;17.33;6.75;;;25.00;68.40;;;;;;5085424;28;20436;-72
2022/10/19 11:55:26;;;;;;;11.43;6.10;;;25.00;68.40;;;;;;5072352;28;20013;-72
2022/10/19 11:58:10;;;;;;;7.80;6.28;;;25.00;69.20;;;;;;5064128;28;20158;-72
2022/10/19 12:00:58;;;;;;;12.57;6.97;;;25.00;68.70;;;;;;5068323;28;20051;-72
2022/10/19 12:04:10;;;;;;;11.65;6.25;;;25.10;68.70;;;;;;5060286;28;20047;-72
2022/10/19 12:06:57;;;;;;;10.07;5.95;;;25.10;68.60;;;;;;5069473;28;20048;-72
2022/10/19 12:09:35;;;;;;;9.38;6.75;;;25.10;68.70;;;;;;5075082;28;20041;-71
2022/10/19 12:12:15;;;;;;;7.68;5.65;;;25.20;68.60;;;;;;5070036;28;20017;-73
2022/10/19 12:14:45;;;;;;;10.50;6.40;;;25.10;68.50;;;;;;5073609;28;20548;-73
2022/10/19 12:17:27;;;;;;;14.38;8.70;;;25.10;68.50;;;;;;5063835;28;20382;-73
2022/10/19 12:19:57;;;;;;;11.95;6.90;;;25.10;68.30;;;;;;5069191;28;20136;-72
2022/10/19 12:22:28;;;;;;;7.90;6.13;;;25.20;68.30;;;;;;5068576;28;20063;-72
2022/10/19 12:24:58;;;;;;;7.05;5.28;;;25.20;68.30;;;;;;5066848;28;20020;-72
2022/10/19 12:27:34;;;;;;;11.00;6.88;;;25.20;68.00;;;;;;5061622;28;20024;-72
2022/10/19 12:30:22;;;;;;;11.93;7.40;;;25.20;67.90;;;;;;5071410;28;20064;-72
2022/10/19 12:33:13;;;;;;;11.00;6.15;;;25.20;67.80;;;;;;5068908;28;20678;-72
2022/10/19 12:36:11;;;;;;;9.35;7.32;;;25.30;67.70;;;;;;5069177;28;20564;-72
2022/10/19 12:38:54;;;;;;;12.25;8.05;;;25.30;67.60;;;;;;5063129;28;20032;-72
2022/10/19 12:41:52;;;;;;;13.90;8.57;;;25.30;67.40;;;;;;5068958;28;20552;-72
2022/10/19 12:44:47;;;;;;;9.00;7.32;;;25.30;67.30;;;;;;5066794;28;20097;-72
2022/10/19 12:47:21;;;;;;;10.10;7.95;;;25.30;67.20;;;;;;5070100;28;20013;-72
2022/10/19 12:49:54;;;;;;;16.65;7.70;;;25.30;67.30;;;;;;5065585;28;20131;-72
2022/10/19 12:52:39;;;;;;;11.23;8.48;;;25.40;67.20;;;;;;5072651;28;20028;-72
2022/10/19 12:55:14;;;;;;;13.38;7.00;;;25.40;67.00;;;;;;5071130;28;20403;-72
2022/10/19 12:57:46;;;;;;;8.52;5.90;;;25.40;66.90;;;;;;5070039;28;20525;-72
2022/10/19 13:00:26;;;;;;;9.85;6.90;;;25.40;66.80;;;;;;5067915;28;20116;-72
2022/10/19 13:03:15;;;;;;;9.38;6.35;;;25.50;66.90;;;;;;5061414;28;20025;-72
2022/10/19 13:05:41;;;;;;;9.65;6.35;;;25.50;66.80;;;;;;5067906;28;20036;-71
2022/10/19 13:08:08;;;;;;;9.98;4.97;;;25.50;66.70;;;;;;5070303;28;20012;-73
2022/10/19 13:10:35;;;;;;;9.98;5.28;;;25.60;66.80;;;;;;5063553;28;20033;-72
2022/10/19 13:13:02;;;;;;;10.65;4.65;;;25.60;66.90;;;;;;5066902;28;20509;-73
2022/10/19 13:15:37;;;;;;;9.57;4.88;;;25.60;66.80;;;;;;5067716;28;21452;-73
2022/10/19 13:18:11;;;;;;;8.55;4.70;;;25.60;67.50;;;;;;5063597;28;20100;-73
2022/10/19 13:20:38;;;;;;;6.82;4.85;;;25.60;66.80;;;;;;5069063;28;20136;-72
2022/10/19 13:23:04;;;;;;;5.15;3.83;;;25.60;66.90;;;;;;5068819;28;20467;-72
2022/10/19 13:25:34;;;;;;;7.97;4.78;;;25.50;67.00;;;;;;5061569;28;20529;-73
2022/10/19 13:28:10;;;;;;;7.07;4.53;;;25.50;67.10;;;;;;5067450;28;20040;-72
2022/10/19 13:30:42;;;;;;;5.72;4.07;;;25.50;67.10;;;;;;5069463;28;20483;-72
2022/10/19 13:33:32;;;;;;;9.85;5.50;;;25.50;67.30;;;;;;5066611;28;20360;-72
2022/10/19 13:36:06;;;;;;;5.90;3.35;;;25.50;67.60;;;;;;5068718;28;20029;-72
2022/10/19 13:38:51;;;;;;;6.00;3.55;;;25.50;67.80;;;;;;5062732;28;20052;-73
2022/10/19 13:41:27;;;;;;;3.88;2.92;;;25.50;68.00;;;;;;5081893;28;20060;-72
2022/10/19 13:44:13;;;;;;;8.32;4.45;;;25.50;68.00;;;;;;5064737;28;20125;-72
2022/10/19 13:46:55;;;;;;;6.93;3.70;;;25.40;67.90;;;;;;5069549;28;20032;-72
2022/10/19 13:49:24;;;;;;;6.05;4.32;;;25.40;67.90;;;;;;5066368;28;20486;-72
2022/10/19 13:52:29;;;;;;;12.32;5.18;;;25.40;68.00;;;;;;5062844;28;20804;-72
2022/10/19 13:55:10;;;;;;;5.27;4.60;;;25.30;68.30;;;;;;5060865;28;20120;-73
2022/10/19 13:58:24;;;;;;;11.38;5.30;;;25.30;68.00;;;;;;5064876;28;20835;-71
2022/10/19 14:01:08;;;;;;;8.15;4.43;;;25.30;68.60;;;;;;5053483;28;20033;-71
2022/10/19 14:03:45;;;;;;;7.65;4.05;;;25.30;67.90;;;;;;5073552;28;20028;-72
2022/10/19 14:06:44;;;;;;;6.45;3.60;;;25.30;67.90;;;;;;5067385;28;20128;-72
2022/10/19 14:09:32;;;;;;;6.53;3.28;;;25.40;67.90;;;;;;5072990;28;20444;-72
2022/10/19 14:12:13;;;;;;;9.82;3.65;;;25.30;68.40;;;;;;5063110;28;20089;-72
2022/10/19 14:14:43;;;;;;;9.45;3.88;;;25.30;67.70;;;;;;5067434;28;20016;-72
2022/10/19 14:17:32;;;;;;;4.28;3.83;;;25.30;67.70;;;;;;5065439;28;20025;-71
2022/10/19 14:19:59;;;;;;;6.82;5.07;;;25.30;67.80;;;;;;5069187;28;20059;-72
2022/10/19 14:22:32;;;;;;;5.80;3.22;;;25.30;67.80;;;;;;5066230;28;20021;-72
2022/10/19 14:25:14;;;;;;;7.13;4.18;;;25.30;67.80;;;;;;5067773;28;20382;-72
2022/10/19 14:27:40;;;;;;;7.78;4.38;;;25.30;67.80;;;;;;5063064;28;20028;-72
2022/10/19 14:30:28;;;;;;;6.47;3.60;;;25.30;67.90;;;;;;5067477;28;20089;-71
2022/10/19 14:32:55;;;;;;;8.85;3.65;;;25.30;67.80;;;;;;5064751;28;20552;-72
2022/10/19 14:35:29;;;;;;;4.00;2.90;;;25.30;67.80;;;;;;5061614;28;20025;-72
2022/10/19 14:37:56;;;;;;;7.70;3.42;;;25.20;67.70;;;;;;5067086;28;20090;-72
2022/10/19 14:40:29;;;;;;;6.55;3.00;;;25.20;67.80;;;;;;5072039;28;20036;-72
2022/10/19 14:42:58;;;;;;;4.72;2.70;;;25.20;67.80;;;;;;5064781;28;20032;-72
2022/10/19 14:45:32;;;;;;;7.25;3.38;;;25.20;67.90;;;;;;5073799;28;20028;-72
2022/10/19 14:48:01;;;;;;;8.27;3.53;;;25.20;68.10;;;;;;5066266;28;20025;-72
2022/10/19 14:50:48;;;;;;;5.40;3.97;;;25.20;68.20;;;;;;5068187;28;20052;-71
2022/10/19 14:53:38;;;;;;;7.80;3.88;;;25.20;68.10;;;;;;5066608;28;20017;-71
2022/10/19 14:56:16;;;;;;;12.40;3.60;;;25.10;68.10;;;;;;5066693;28;20105;-73
2022/10/19 14:59:16;;;;;;;7.32;4.65;;;25.10;68.20;;;;;;5063345;28;20433;-72
2022/10/19 15:01:49;;;;;;;9.60;3.90;;;25.10;68.20;;;;;;5064670;28;20037;-72
2022/10/19 15:04:23;;;;;;;8.93;3.47;;;24.90;69.00;;;;;;5062108;28;20495;-73
2022/10/19 15:06:50;;;;;;;18.23;6.17;;;24.80;70.60;;;;;;5061033;28;20352;-73
2022/10/19 15:09:33;;;;;;;5.13;3.45;;;24.80;71.20;;;;;;5068325;28;20036;-74
2022/10/19 15:12:17;;;;;;;9.77;6.35;;;24.90;70.80;;;;;;5059630;28;20435;-75
2022/10/19 15:14:44;;;;;;;14.32;6.53;;;24.90;69.80;;;;;;5061786;28;20025;-73
2022/10/19 15:17:31;;;;;;;10.13;5.72;;;24.90;69.70;;;;;;5067139;28;20458;-72
2022/10/19 15:19:59;;;;;;;9.38;4.47;;;24.90;70.10;;;;;;5069979;28;20052;-72
2022/10/19 15:22:32;;;;;;;7.53;3.22;;;24.90;70.00;;;;;;5064361;28;20477;-73
2022/10/19 15:25:00;;;;;;;7.47;3.95;;;24.90;69.80;;;;;;5065982;28;20024;-72
2022/10/19 15:27:36;;;;;;;9.32;4.07;;;24.90;69.50;;;;;;5070080;28;20107;-72
2022/10/19 15:30:22;;;;;;;12.15;8.93;;;24.90;69.30;;;;;;5067109;28;20390;-71
2022/10/19 15:32:57;;;;;;;12.15;7.50;;;24.80;69.90;;;;;;5064262;28;20031;-72
2022/10/19 15:35:29;;;;;;;5.75;3.83;;;24.70;69.30;;;;;;5066509;28;20436;-75